Aviation weather information 2019-08-17 23:47 UTC

TAF(FTEO31)
FTEO31 EETN 172300
TAF EETN 172322Z 1800/1824 16010KT 9999 SCT040 PROB40 TEMPO
     1803/1812 SCT030CB=

TAF(FTEO33)
FTEO33 EEEI 171730
TAF EEEI 171730Z 1718/1818 15005KT 9999 FEW035=

Weather observation (METAR/SPECI)
METAR EETN 172320Z 15006KT CAVOK 17/12 Q1013 =
METAR EEEI 172320Z AUTO 12006KT CAVOK 16/13 Q1013=
METAR EETU 172320Z AUTO 13004KT 9999 NCD 12/10 Q1015=
METAR EEPU 172250Z NIL=
SPECI EEKE 172336Z AUTO 16002KT 9999NDV FEW004 13/12 Q1012=
METAR EEKA 172250Z NIL=